Log in

Login to your account

Username *
Password *
Remember Me

METAR/TAF de Chambéry

[source: ADDS]
METAR / TAF
LFLB 020900Z AUTO VRB02KT 9999 0800 R18/P5000 R36/P5000 // OVC064 04/02 Q1032 =
TAF LFLB 020800Z 0209/0309 VRB02KT CAVOK PROB30 TEMPO 0300/0309 BKN030

SR / SS: 06:56 / 16:43 UTC (Lever/Coucher du soleil le 2023-02-02)

 

Webcam de l'Aéroclub - Parking Lima et SW (réactualisation : 5min)

Cliquer ici pour une animation sur les 3 dernières heures / Cliquer sur l'image pour l'agrandir dans une nouvelle fenêtre

 

Webcam de l'Aéroclub - Manche à air et WA (réactualisation : 5min)

Cliquer ici pour une animation sur les 3 dernières heures / Cliquer sur l'image pour l'agrandir dans une nouvelle fenêtre

 

 

Webcams Tierces :

 

Webcam Belvédère du Revard - 360-SW-WA-EY-NL / 4955ft

Webcam Décollage parapente Pragondran - WA-NL / 2970ft

Webcam Bourget du Lac - 360-WA-EY

Webcam port d'Aix les Bains - 360

Webcam Belvédère d'Ontex- Vers l'est - EY / 1985ft

Webcam Belvédère de la Chambotte - Vers l'Ouest - WA-NL / 2200ft

Webcam port de Chatillon - 360-NL

Webcam La Motte Servolex - Vers l'Est - Croix du Nivolet / 1065ft

Webcam Aérodrome de Challes - LFLE - Vers l'Est - Mont St Michel

JSN Boot template designed by JoomlaShine.com